Interactive Weather Chart

4 Day

Outlook

Weather Updates

Severe Weather for Tasmania

Severe Weather for Tasmania

We would like to apologise for the cancellations and delays to our services over the last few days. The weather we have experienced in Tasmania, and especially in the Furneaux Islands has been quite severe. We understand that the islands depend on the services we...

A Boggy Day in Bridport

A Boggy Day in Bridport

The team at Flinders Island Aviation Services would like to thank everyone for their patience and understanding of the delays to our service over the last few weeks. Tasmania has been subject to high rainfalls, leading to major flooding on the Tasmanian mainland. Unfortunately, the rains have continued in Tasmania today, while the island has enjoyed quite a nice day. We thought this may be a good time to show some of the water that has landed at our airstrip in Bridport.

A Smokey Day For Bass Strait

A Smokey Day For Bass Strait

Our pilots are very experienced in handling the unexpected challenges the weather of Bass Strait is known to throw at us. From strong winds, to rain and storms, and of course the infamous summer sea fogs. Today however, we were surprised by a rarer breed of...

Current Conditions

Flinders Island

METAR YFLI 251030Z AUTO 26027KT 9999 // SCT034 12/07 Q1010 RMK
RF00.0/005.0

Launceston

METAR YMLT 251030Z AUTO 36008KT 9999 // NCD 05/01 Q1009 RMK
RF00.0/000.0

Current Forecasts

Flinders Island

TAF YFLI 250703Z 2508/2520
26020G30KT 9999 -SHRA FEW015 SCT030
RMK
T 11 10 08 07 Q 1008 1011 1013 1015

Launceston

TAF YMLT 250516Z 2506/2606
31012KT 9999 SCT045
FM250900 35005KT 9999 SCT045
FM251800 VRB03KT CAVOK
FM260200 33008KT CAVOK
RMK FM250600 MOD TURB BLW 5000FT TILL251200
T 10 05 03 M01 Q 1004 1007 1011 1013

Aviation forecasts shown above are sourced from a third party, and as such Flinders Island Aviation Services cannot be held responsible for the accuracy of the information provided. This information is not intended for use in flight planning.